createdAt,value
2017-03-13T00:00:15.645Z,23.18
2017-03-13T00:01:15.556Z,23.18
2017-03-13T00:02:15.518Z,23.1
2017-03-13T00:03:15.817Z,23.21
2017-03-13T00:04:15.775Z,23.12
2017-03-13T00:05:15.691Z,23.24
2017-03-13T00:06:15.632Z,23.12
2017-03-13T00:07:15.580Z,23.13
2017-03-13T00:08:15.508Z,23.12
2017-03-13T00:09:15.463Z,23.09
2017-03-13T00:10:15.383Z,23.12
2017-03-13T00:11:15.323Z,23.1
2017-03-13T00:12:15.260Z,23.12
2017-03-13T00:13:15.204Z,23.13
2017-03-13T00:14:15.148Z,23.15
2017-03-13T00:15:15.090Z,23.18
2017-03-13T00:16:15.020Z,23.1
2017-03-13T00:17:14.964Z,23.13
2017-03-13T00:18:14.906Z,23.17
2017-03-13T00:19:14.842Z,23.17
2017-03-13T00:20:14.782Z,23.18
2017-03-13T00:21:14.704Z,23.13
2017-03-13T00:22:14.653Z,23.15
2017-03-13T00:23:14.582Z,23.13
2017-03-13T00:24:14.512Z,23.12
2017-03-13T00:25:14.468Z,23.12
2017-03-13T00:26:14.009Z,23.17
2017-03-13T00:27:14.355Z,23.17
2017-03-13T00:28:14.287Z,23.2
2017-03-13T00:29:14.205Z,23.17
2017-03-13T00:30:14.150Z,23.15
2017-03-13T00:31:14.097Z,23.2
2017-03-13T00:32:14.018Z,23.18
2017-03-13T00:33:13.974Z,23.15
2017-03-13T00:34:13.519Z,23.18
2017-03-13T00:35:13.063Z,23.18
2017-03-13T00:36:13.782Z,23.09
2017-03-13T00:37:13.708Z,23.12
2017-03-13T00:38:13.269Z,23.12
2017-03-13T00:39:13.635Z,23.12
2017-03-13T00:40:13.158Z,23.1
2017-03-13T00:41:13.460Z,23.15
2017-03-13T00:42:13.406Z,23.13
2017-03-13T00:43:13.346Z,23.13
2017-03-13T00:44:13.279Z,23.2
2017-03-13T00:45:13.246Z,23.1
2017-03-13T00:46:13.147Z,23.15
2017-03-13T00:47:13.114Z,23.09
2017-03-13T00:48:13.056Z,23.15
2017-03-13T00:49:12.964Z,23.12
2017-03-13T00:50:12.905Z,23.15
2017-03-13T00:51:12.938Z,23.15
2017-03-13T00:52:12.798Z,23.13
2017-03-13T00:53:12.716Z,23.08
2017-03-13T00:54:12.681Z,23.2
2017-03-13T00:55:12.600Z,23.12
2017-03-13T00:56:12.527Z,23.15
2017-03-13T00:57:12.470Z,23.18
2017-03-13T00:58:12.428Z,23.15
2017-03-13T00:59:12.348Z,23.17
2017-03-13T01:01:15.612Z,23.17
2017-03-13T01:02:15.243Z,23.1
2017-03-13T01:03:15.183Z,23.13
2017-03-13T01:04:15.133Z,23.18
2017-03-13T01:05:14.953Z,23.12
2017-03-13T01:06:14.997Z,23.2
2017-03-13T01:07:14.935Z,23.08
2017-03-13T01:08:14.921Z,23.1
2017-03-13T01:09:14.823Z,23.13
2017-03-13T01:10:14.754Z,23.12
2017-03-13T01:11:15.274Z,23.17
2017-03-13T01:12:14.244Z,23.13
2017-03-13T01:13:14.573Z,23.2
2017-03-13T01:14:14.504Z,23.12
2017-03-13T01:15:14.447Z,23.17
2017-03-13T01:16:14.387Z,23.08
2017-03-13T01:17:14.595Z,23.13
2017-03-13T01:18:13.925Z,23.09
2017-03-13T01:19:14.498Z,23.09
2017-03-13T01:20:14.144Z,23.17
2017-03-13T01:21:14.075Z,23.13
2017-03-13T01:22:13.675Z,23.12
2017-03-13T01:23:13.940Z,23.09
2017-03-13T01:24:14.463Z,23.17
2017-03-13T01:25:13.438Z,23.15
2017-03-13T01:26:14.043Z,23.08
2017-03-13T01:27:12.927Z,23.12
2017-03-13T01:28:13.631Z,23.12
2017-03-13T01:29:13.570Z,23.12
2017-03-13T01:30:13.514Z,23.1
2017-03-13T01:31:13.441Z,23.09
2017-03-13T01:32:13.381Z,23.12
2017-03-13T01:33:13.323Z,23.1
2017-03-13T01:34:13.267Z,23.13
2017-03-13T01:35:13.203Z,23.12
2017-03-13T01:36:13.149Z,23.09
2017-03-13T01:37:12.677Z,23.09
2017-03-13T01:38:13.597Z,23.13
2017-03-13T01:39:12.946Z,23.13
2017-03-13T01:40:12.897Z,23.13
2017-03-13T01:41:12.829Z,23.1
2017-03-13T01:42:12.770Z,23.15
2017-03-13T01:43:12.698Z,23.1
2017-03-13T01:44:12.272Z,23.17
2017-03-13T01:45:12.584Z,23.12
2017-03-13T01:46:12.517Z,23.08
2017-03-13T01:47:12.452Z,23.09
2017-03-13T01:48:11.994Z,23.09
2017-03-13T01:49:12.329Z,23.13
2017-03-13T01:50:12.269Z,23.15
2017-03-13T01:51:12.203Z,23.09
2017-03-13T01:52:11.750Z,23.08
2017-03-13T01:53:12.087Z,23.18
2017-03-13T01:54:12.015Z,23.08
2017-03-13T01:55:11.958Z,23.12
2017-03-13T01:56:11.891Z,23.06
2017-03-13T01:57:11.881Z,23.09
2017-03-13T01:58:10.993Z,23.15
2017-03-13T01:59:11.735Z,23.1
2017-03-13T02:00:11.650Z,23.08
2017-03-13T02:01:11.597Z,23.05
2017-03-13T02:02:11.130Z,23.1
2017-03-13T02:03:11.460Z,23.09
2017-03-13T02:04:11.401Z,23.12
2017-03-13T02:05:11.486Z,23.06
2017-03-13T02:06:10.888Z,23.18
2017-03-13T02:07:10.826Z,23.08
2017-03-13T02:08:10.765Z,23.1
2017-03-13T02:09:11.084Z,23.09
2017-03-13T02:10:11.125Z,23.08
2017-03-13T02:11:11.254Z,23.1
2017-03-13T02:12:10.911Z,23.15
2017-03-13T02:13:10.845Z,23.17
2017-03-13T02:14:11.076Z,23.1
2017-03-13T02:15:11.007Z,23.09
2017-03-13T02:16:10.649Z,23.18
2017-03-13T02:17:10.595Z,23.02
2017-03-13T02:18:09.755Z,23.13
2017-03-13T02:19:10.477Z,23.12
2017-03-13T02:20:10.410Z,23.13
2017-03-13T02:21:10.356Z,23.18
2017-03-13T02:22:10.301Z,23.08
2017-03-13T02:23:10.234Z,23.08
2017-03-13T02:24:09.775Z,23.08
2017-03-13T02:25:10.095Z,23.13
2017-03-13T02:26:10.342Z,23.12
2017-03-13T02:27:09.977Z,23.08
2017-03-13T02:28:09.515Z,23.06
2017-03-13T02:29:09.857Z,23.08
2017-03-13T02:30:09.386Z,23.08
2017-03-13T02:31:09.723Z,23.08
2017-03-13T02:32:09.945Z,23.08
2017-03-13T02:33:10.185Z,23.08
2017-03-13T02:34:09.821Z,23.1
2017-03-13T02:35:09.485Z,23.13
2017-03-13T02:36:09.414Z,23.1
2017-03-13T02:37:09.656Z,23.17
2017-03-13T02:38:09.298Z,23.12
2017-03-13T02:39:09.233Z,23.18
2017-03-13T02:40:09.162Z,23.08
2017-03-13T02:41:09.103Z,23.08
2017-03-13T02:42:09.049Z,23.08
2017-03-13T02:43:08.991Z,23.12
2017-03-13T02:44:08.934Z,23.15
2017-03-13T02:45:08.853Z,23.1
2017-03-13T02:46:09.083Z,23.08
2017-03-13T02:47:08.392Z,23.09
2017-03-13T02:48:08.978Z,23.17
2017-03-13T02:49:08.600Z,23.08
2017-03-13T02:50:08.151Z,23.06
2017-03-13T02:51:08.105Z,23.1
2017-03-13T02:52:08.419Z,23.09
2017-03-13T02:53:07.570Z,23.06
2017-03-13T02:54:08.294Z,23.1
2017-03-13T02:55:08.254Z,23.08
2017-03-13T02:56:08.169Z,23.15
2017-03-13T02:57:07.715Z,23.17
2017-03-13T02:58:07.946Z,23.13
2017-03-13T02:59:08.279Z,23.08
2017-03-13T03:00:07.926Z,23.08
2017-03-13T03:01:07.859Z,23.08
2017-03-13T03:02:07.820Z,23.1
2017-03-13T03:03:07.736Z,23.15
2017-03-13T03:04:07.965Z,23.12
2017-03-13T03:05:07.632Z,23.1
2017-03-13T03:06:07.550Z,23.12
2017-03-13T03:07:07.786Z,23.1
2017-03-13T03:08:07.723Z,23.1
2017-03-13T03:09:07.679Z,23.12
2017-03-13T03:10:07.304Z,23.15
2017-03-13T03:11:07.261Z,23.15
2017-03-13T03:12:07.189Z,23.06
2017-03-13T03:13:07.134Z,23.1
2017-03-13T03:14:07.051Z,23.12
2017-03-13T03:15:06.990Z,23.06
2017-03-13T03:16:06.953Z,23.05
2017-03-13T03:17:06.871Z,23.08
2017-03-13T03:18:06.809Z,23.03
2017-03-13T03:19:06.743Z,23.09
2017-03-13T03:20:06.684Z,23.08
2017-03-13T03:21:06.914Z,23.1
2017-03-13T03:22:06.225Z,23.1
2017-03-13T03:23:06.499Z,23.09
2017-03-13T03:24:06.446Z,23.08
2017-03-13T03:25:06.391Z,23.17
2017-03-13T03:26:06.318Z,23.09
2017-03-13T03:27:06.256Z,23.03
2017-03-13T03:28:06.484Z,23.08
2017-03-13T03:29:06.130Z,23.08
2017-03-13T03:30:06.352Z,23.08
2017-03-13T03:31:06.283Z,23.1
2017-03-13T03:32:06.231Z,23.06
2017-03-13T03:33:05.886Z,23.08
2017-03-13T03:34:05.810Z,23.1
2017-03-13T03:35:05.655Z,23.06
2017-03-13T03:36:05.379Z,23.03
2017-03-13T03:37:05.637Z,23.12
2017-03-13T03:38:05.599Z,23.09
2017-03-13T03:39:05.518Z,23.13
2017-03-13T03:40:05.743Z,23.08
2017-03-13T03:41:05.384Z,23.06
2017-03-13T03:42:05.621Z,23.09
2017-03-13T03:43:04.866Z,23.08
2017-03-13T03:44:05.498Z,23.05
2017-03-13T03:45:05.129Z,23.1
2017-03-13T03:46:04.679Z,23.06
2017-03-13T03:47:05.298Z,23.08
2017-03-13T03:48:05.249Z,23.05
2017-03-13T03:49:04.881Z,23.06
2017-03-13T03:50:04.832Z,23.1
2017-03-13T03:51:04.768Z,23.1
2017-03-13T03:52:04.697Z,23.05
2017-03-13T03:53:04.956Z,23.03
2017-03-13T03:54:04.574Z,23.06
2017-03-13T03:55:04.198Z,23.06
2017-03-13T03:56:04.741Z,23.1
2017-03-13T03:57:04.396Z,23.03
2017-03-13T03:58:03.951Z,23.05
2017-03-13T03:59:04.284Z,23.03
2017-03-13T04:00:03.935Z,23.03
2017-03-13T04:01:04.152Z,23.1
2017-03-13T04:02:04.088Z,23.08
2017-03-13T04:03:04.025Z,23.1
2017-03-13T04:04:03.961Z,23.1
2017-03-13T04:05:04.209Z,23.05
2017-03-13T04:06:03.830Z,23.05
2017-03-13T04:07:03.783Z,23.08
2017-03-13T04:08:03.711Z,23.03
2017-03-13T04:09:03.827Z,23.02
2017-03-13T04:10:03.582Z,23.02
2017-03-13T04:11:03.524Z,23
2017-03-13T04:12:03.740Z,23.05
2017-03-13T04:13:03.396Z,23.08
2017-03-13T04:14:03.130Z,23.03
2017-03-13T04:15:03.266Z,23.05
2017-03-13T04:16:03.202Z,23.05
2017-03-13T04:17:03.168Z,23.08
2017-03-13T04:18:03.390Z,23.03
2017-03-13T04:19:03.032Z,23.02
2017-03-13T04:20:02.967Z,23.02
2017-03-13T04:21:02.910Z,23.05
2017-03-13T04:22:02.846Z,23.06
2017-03-13T04:23:02.771Z,23.02
2017-03-13T04:24:02.719Z,23.06
2017-03-13T04:25:02.658Z,23.03
2017-03-13T04:26:02.607Z,23
2017-03-13T04:27:02.826Z,23.03
2017-03-13T04:28:02.482Z,23.03
2017-03-13T04:29:02.407Z,23.02
2017-03-13T04:30:02.355Z,22.99
2017-03-13T04:31:02.288Z,23.05
2017-03-13T04:32:02.222Z,23.05
2017-03-13T04:33:02.155Z,22.99
2017-03-13T04:34:02.089Z,23.03
2017-03-13T04:35:02.023Z,23.03
2017-03-13T04:36:01.979Z,23
2017-03-13T04:37:01.903Z,22.96
2017-03-13T04:38:02.131Z,23
2017-03-13T04:39:01.778Z,22.96
2017-03-13T04:40:01.716Z,23
2017-03-13T04:41:01.938Z,23.02
2017-03-13T04:42:01.585Z,22.99
2017-03-13T04:43:01.536Z,23
2017-03-13T04:44:01.469Z,22.98
2017-03-13T04:45:01.020Z,23
2017-03-13T04:46:01.243Z,22.99
2017-03-13T04:47:01.279Z,22.94
2017-03-13T04:48:01.224Z,22.99
2017-03-13T04:49:01.445Z,22.96
2017-03-13T04:50:01.113Z,22.98
2017-03-13T04:51:01.041Z,23
2017-03-13T04:52:01.256Z,22.98
2017-03-13T04:53:01.220Z,22.96
2017-03-13T04:54:00.843Z,22.91
2017-03-13T04:55:00.835Z,22.98
2017-03-13T04:56:00.718Z,23.02
2017-03-13T04:57:00.945Z,23.02
2017-03-13T04:58:00.598Z,23
2017-03-13T04:59:00.545Z,22.94
2017-03-13T05:00:00.480Z,23.02
2017-03-13T05:01:00.411Z,23.03
2017-03-13T05:02:00.649Z,22.99
2017-03-13T05:03:00.298Z,22.9
2017-03-13T05:04:00.229Z,23.03
2017-03-13T05:05:00.170Z,22.9
2017-03-13T05:05:59.730Z,22.98
2017-03-13T05:07:00.060Z,22.99
2017-03-13T05:07:59.976Z,23.02
2017-03-13T05:08:59.915Z,22.98
2017-03-13T05:09:59.863Z,22.96
2017-03-13T05:10:59.784Z,22.88
2017-03-13T05:11:59.738Z,22.94
2017-03-13T05:12:59.668Z,22.93
2017-03-13T05:13:59.608Z,22.88
2017-03-13T05:14:59.539Z,22.96
2017-03-13T05:15:59.501Z,22.94
2017-03-13T05:16:59.446Z,23
2017-03-13T05:17:59.358Z,22.87
2017-03-13T05:18:59.307Z,22.88
2017-03-13T05:19:59.235Z,22.91
2017-03-13T05:20:59.171Z,22.98
2017-03-13T05:21:59.108Z,22.88
2017-03-13T05:22:59.054Z,22.98
2017-03-13T05:23:59.003Z,22.85
2017-03-13T05:24:58.540Z,22.9
2017-03-13T05:25:59.144Z,22.87
2017-03-13T05:26:58.792Z,22.93
2017-03-13T05:27:58.745Z,22.87
2017-03-13T05:28:58.680Z,22.88
2017-03-13T05:29:58.610Z,22.87
2017-03-13T05:30:58.645Z,22.96
2017-03-13T05:31:58.489Z,22.91
2017-03-13T05:32:58.426Z,22.93
2017-03-13T05:33:58.359Z,22.94
2017-03-13T05:34:58.295Z,22.96
2017-03-13T05:35:58.235Z,22.96
2017-03-13T05:36:58.172Z,22.84
2017-03-13T05:37:58.705Z,22.93
2017-03-13T05:38:58.050Z,22.96
2017-03-13T05:39:58.019Z,22.93
2017-03-13T05:40:57.935Z,22.88
2017-03-13T05:41:57.863Z,22.91
2017-03-13T05:42:57.813Z,22.94
2017-03-13T05:43:57.752Z,22.91
2017-03-13T05:44:57.680Z,22.88
2017-03-13T05:45:57.629Z,22.93
2017-03-13T05:46:57.172Z,22.91
2017-03-13T05:47:57.502Z,22.98
2017-03-13T05:48:57.057Z,22.93
2017-03-13T05:49:56.978Z,22.84
2017-03-13T05:50:57.317Z,22.91
2017-03-13T05:51:57.530Z,22.9
2017-03-13T05:52:57.179Z,22.98
2017-03-13T05:53:57.118Z,22.98
2017-03-13T05:54:57.058Z,22.99
2017-03-13T05:55:57.002Z,22.88
2017-03-13T05:56:56.934Z,22.94
2017-03-13T05:57:57.155Z,22.9
2017-03-13T05:58:56.808Z,22.88
2017-03-13T05:59:56.760Z,22.9
2017-03-13T06:00:56.840Z,22.94
2017-03-13T06:01:56.645Z,22.93
2017-03-13T06:02:56.864Z,22.96
2017-03-13T06:03:56.505Z,22.93
2017-03-13T06:04:56.440Z,22.93
2017-03-13T06:05:56.660Z,22.93
2017-03-13T06:06:56.595Z,22.93
2017-03-13T06:07:56.527Z,22.91
2017-03-13T06:08:56.190Z,22.84
2017-03-13T06:09:56.431Z,22.94
2017-03-13T06:10:55.669Z,22.87
2017-03-13T06:11:56.001Z,22.93
2017-03-13T06:12:55.933Z,22.98
2017-03-13T06:13:55.884Z,22.93
2017-03-13T06:14:55.822Z,22.91
2017-03-13T06:15:55.756Z,22.93
2017-03-13T06:16:55.692Z,22.94
2017-03-13T06:17:55.518Z,22.9
2017-03-13T06:18:55.849Z,22.91
2017-03-13T06:19:55.498Z,22.84
2017-03-13T06:20:55.464Z,22.91
2017-03-13T06:21:55.375Z,22.87
2017-03-13T06:22:55.309Z,22.9
2017-03-13T06:23:55.259Z,22.96
2017-03-13T06:24:55.200Z,22.85
2017-03-13T06:25:55.121Z,22.98
2017-03-13T06:26:55.069Z,22.98
2017-03-13T06:27:54.608Z,22.91
2017-03-13T06:28:54.551Z,22.85
2017-03-13T06:29:54.489Z,22.87
2017-03-13T06:30:54.821Z,22.83
2017-03-13T06:31:54.755Z,22.93
2017-03-13T06:32:54.989Z,22.91
2017-03-13T06:33:54.628Z,22.94
2017-03-13T06:34:54.574Z,22.87
2017-03-13T06:35:54.530Z,22.99
2017-03-13T06:36:54.453Z,22.96
2017-03-13T06:37:53.998Z,22.88
2017-03-13T06:38:54.630Z,22.98
2017-03-13T06:39:54.555Z,22.94
2017-03-13T06:40:54.189Z,22.96
2017-03-13T06:41:54.138Z,22.96
2017-03-13T06:42:54.066Z,22.94
2017-03-13T06:43:54.294Z,22.91
2017-03-13T06:44:54.238Z,22.84
2017-03-13T06:45:53.895Z,22.93
2017-03-13T06:46:53.829Z,22.93
2017-03-13T06:47:53.777Z,22.99
2017-03-13T06:48:54.007Z,22.94
2017-03-13T06:49:53.644Z,22.93
2017-03-13T06:50:53.595Z,22.94
2017-03-13T06:51:53.514Z,22.94
2017-03-13T06:52:53.732Z,22.96
2017-03-13T06:53:53.383Z,22.94
2017-03-13T06:54:53.466Z,22.96
2017-03-13T06:55:53.260Z,22.96
2017-03-13T06:56:53.103Z,22.84
2017-03-13T06:57:53.136Z,22.87
2017-03-13T06:58:52.691Z,22.96
2017-03-13T06:59:53.030Z,22.91
2017-03-13T07:00:52.947Z,22.87
2017-03-13T07:01:52.892Z,22.84
2017-03-13T07:02:52.829Z,22.9
2017-03-13T07:03:52.762Z,22.94
2017-03-13T07:04:52.710Z,22.85
2017-03-13T07:05:52.931Z,22.98
2017-03-13T07:06:52.573Z,22.9
2017-03-13T07:07:52.514Z,22.94
2017-03-13T07:08:52.459Z,22.94
2017-03-13T07:09:52.672Z,22.85
2017-03-13T07:10:52.341Z,22.99
2017-03-13T07:11:52.273Z,22.88
2017-03-13T07:12:52.201Z,22.94
2017-03-13T07:13:52.141Z,22.94
2017-03-13T07:14:52.088Z,23
2017-03-13T07:15:52.023Z,22.93
2017-03-13T07:16:51.569Z,22.91
2017-03-13T07:17:51.889Z,22.94
2017-03-13T07:18:51.832Z,22.87
2017-03-13T07:19:51.776Z,22.91
2017-03-13T07:20:51.704Z,22.98
2017-03-13T07:21:51.644Z,22.94
2017-03-13T07:22:51.257Z,22.98
2017-03-13T07:23:51.515Z,22.88
2017-03-13T07:24:51.468Z,22.94
2017-03-13T07:25:51.398Z,22.96
2017-03-13T07:26:50.944Z,22.91
2017-03-13T07:27:51.303Z,22.99
2017-03-13T07:28:50.876Z,22.87
2017-03-13T07:29:50.822Z,22.94
2017-03-13T07:30:50.300Z,22.9
2017-03-13T07:31:51.017Z,22.98
2017-03-13T07:32:50.967Z,23
2017-03-13T07:33:50.499Z,22.96
2017-03-13T07:34:50.829Z,23
2017-03-13T07:35:50.768Z,22.94
2017-03-13T07:36:50.733Z,22.98
2017-03-13T07:37:50.273Z,22.98
2017-03-13T07:38:50.606Z,22.94
2017-03-13T07:39:50.528Z,22.94
2017-03-13T07:40:50.066Z,22.9
2017-03-13T07:41:50.408Z,22.9
2017-03-13T07:42:50.629Z,22.88
2017-03-13T07:43:50.271Z,22.84
2017-03-13T07:44:50.212Z,22.9
2017-03-13T07:45:50.378Z,22.94
2017-03-13T07:46:50.107Z,22.99
2017-03-13T07:47:50.043Z,22.94
2017-03-13T07:48:49.964Z,22.98
2017-03-13T07:49:49.110Z,22.9
2017-03-13T07:50:50.099Z,22.94
2017-03-13T07:51:49.774Z,22.94
2017-03-13T07:52:49.386Z,22.93
2017-03-13T07:53:49.255Z,22.88
2017-03-13T07:54:49.591Z,22.91
2017-03-13T07:55:49.625Z,22.93
2017-03-13T07:56:49.083Z,22.99
2017-03-13T07:57:49.402Z,22.98
2017-03-13T07:58:49.343Z,22.98
2017-03-13T07:59:49.292Z,22.94
2017-03-13T08:00:48.824Z,22.98
2017-03-13T08:01:49.462Z,22.99
2017-03-13T08:02:49.085Z,22.99
2017-03-13T08:03:49.025Z,22.98
2017-03-13T08:04:48.963Z,22.88
2017-03-13T08:05:48.515Z,22.94
2017-03-13T08:06:48.847Z,22.88
2017-03-13T08:07:48.778Z,22.9
2017-03-13T08:08:49.025Z,22.96
2017-03-13T08:09:48.670Z,22.9
2017-03-13T08:10:48.892Z,22.94
2017-03-13T08:11:48.849Z,22.91
2017-03-13T08:12:48.474Z,22.91
2017-03-13T08:13:48.409Z,22.91
2017-03-13T08:14:48.350Z,22.85
2017-03-13T08:15:48.565Z,22.87
2017-03-13T08:16:47.835Z,22.96
2017-03-13T08:17:48.160Z,22.91
2017-03-13T08:18:48.107Z,22.94
2017-03-13T08:19:48.033Z,22.9
2017-03-13T08:20:47.967Z,22.96
2017-03-13T08:21:47.924Z,22.87
2017-03-13T08:22:47.849Z,22.96
2017-03-13T08:23:47.784Z,22.98
2017-03-13T08:24:47.735Z,22.9
2017-03-13T08:25:47.664Z,22.93
2017-03-13T08:26:47.619Z,22.96
2017-03-13T08:27:47.533Z,22.96
2017-03-13T08:28:47.494Z,22.88
2017-03-13T08:29:47.410Z,23
2017-03-13T08:30:47.354Z,22.94
2017-03-13T08:31:47.294Z,22.93
2017-03-13T08:32:47.490Z,22.99
2017-03-13T08:33:47.316Z,22.96
2017-03-13T08:34:46.894Z,22.99
2017-03-13T08:35:47.056Z,23.02
2017-03-13T08:36:46.584Z,23.02
2017-03-13T08:37:46.924Z,23.02
2017-03-13T08:38:46.848Z,23.08
2017-03-13T08:39:46.793Z,23.05
2017-03-13T08:40:46.741Z,23.09
2017-03-13T08:41:46.796Z,23.08
2017-03-13T08:42:46.860Z,23.13
2017-03-13T08:43:46.615Z,23.09
2017-03-13T08:44:46.477Z,23.18
2017-03-13T08:45:46.702Z,23.12
2017-03-13T08:46:46.359Z,23.12
2017-03-13T08:47:46.298Z,23.1
2017-03-13T08:48:46.515Z,23.13
2017-03-13T08:49:46.175Z,23.15
2017-03-13T08:50:46.409Z,23.17
2017-03-13T08:51:46.348Z,23.21
2017-03-13T08:52:45.991Z,23.2
2017-03-13T08:53:46.204Z,23.23
2017-03-13T08:54:45.853Z,23.25
2017-03-13T08:55:46.084Z,23.21
2017-03-13T08:56:45.738Z,23.21
2017-03-13T08:57:45.345Z,23.24
2017-03-13T08:58:45.951Z,23.23
2017-03-13T08:59:45.553Z,23.21
2017-03-13T09:00:45.502Z,23.27
2017-03-13T09:01:45.716Z,23.23
2017-03-13T09:02:45.687Z,23.23
2017-03-13T09:03:45.312Z,23.23
2017-03-13T09:04:45.244Z,23.28
2017-03-13T09:05:45.290Z,23.25
2017-03-13T09:06:45.113Z,23.25
2017-03-13T09:07:45.052Z,23.25
2017-03-13T09:08:45.055Z,23.2
2017-03-13T09:09:45.059Z,23.2
2017-03-13T09:10:44.237Z,23.23
2017-03-13T09:11:45.099Z,23.23
2017-03-13T09:12:45.141Z,23.23
2017-03-13T09:13:44.694Z,23.27
2017-03-13T09:14:44.757Z,23.25
2017-03-13T09:15:44.884Z,23.24
2017-03-13T09:16:44.508Z,23.21
2017-03-13T09:17:44.678Z,23.25
2017-03-13T09:18:44.374Z,23.31
2017-03-13T09:19:44.323Z,23.23
2017-03-13T09:20:44.242Z,23.23
2017-03-13T09:21:44.217Z,23.2
2017-03-13T09:22:44.389Z,23.24
2017-03-13T09:23:44.083Z,23.27
2017-03-13T09:24:44.010Z,23.23
2017-03-13T09:25:43.952Z,23.21
2017-03-13T09:26:43.883Z,23.17
2017-03-13T09:27:43.431Z,23.24
2017-03-13T09:28:43.753Z,23.27
2017-03-13T09:29:43.370Z,23.25
2017-03-13T09:30:43.482Z,23.21
2017-03-13T09:31:43.585Z,23.23
2017-03-13T09:32:43.114Z,23.18
2017-03-13T09:33:43.052Z,23.23
2017-03-13T09:34:43.392Z,23.25
2017-03-13T09:35:42.923Z,23.18
2017-03-13T09:36:43.264Z,23.18
2017-03-13T09:37:43.198Z,23.25
2017-03-13T09:38:43.297Z,23.25
2017-03-13T09:39:46.025Z,23.25
2017-03-13T09:40:43.045Z,23.24
2017-03-13T09:41:43.165Z,23.25
2017-03-13T09:42:42.902Z,23.39
2017-03-13T09:43:43.043Z,23.36
2017-03-13T09:44:42.763Z,23.37
2017-03-13T09:45:42.554Z,23.37
2017-03-13T09:46:42.921Z,23.31
2017-03-13T09:47:42.884Z,23.25
2017-03-13T09:48:42.522Z,23.34
2017-03-13T09:49:42.471Z,23.36
2017-03-13T09:50:42.639Z,23.36
2017-03-13T09:51:42.376Z,23.44
2017-03-13T09:52:42.278Z,23.44
2017-03-13T09:53:42.333Z,23.44
2017-03-13T09:54:42.435Z,23.48
2017-03-13T09:55:42.445Z,23.4
2017-03-13T09:56:42.020Z,23.44
2017-03-13T09:57:42.236Z,23.41
2017-03-13T09:58:41.896Z,23.48
2017-03-13T09:59:41.833Z,23.51
2017-03-13T10:00:42.064Z,23.55
2017-03-13T10:01:41.707Z,23.5
2017-03-13T10:02:41.661Z,23.56
2017-03-13T10:03:42.215Z,23.54
2017-03-13T10:04:41.210Z,23.56
2017-03-13T10:05:41.321Z,23.5
2017-03-13T10:06:41.750Z,23.58
2017-03-13T10:07:41.494Z,23.58
2017-03-13T10:08:41.287Z,23.62
2017-03-13T10:09:41.212Z,23.59
2017-03-13T10:10:41.777Z,23.61
2017-03-13T10:11:41.199Z,23.59
2017-03-13T10:12:41.032Z,23.62
2017-03-13T10:13:41.260Z,23.68
2017-03-13T10:14:40.521Z,23.61
2017-03-13T10:15:40.851Z,23.63
2017-03-13T10:16:40.797Z,23.68
2017-03-13T10:17:40.736Z,23.69
2017-03-13T10:18:40.656Z,23.71
2017-03-13T10:19:40.599Z,23.74
2017-03-13T10:20:40.538Z,23.66
2017-03-13T10:21:40.920Z,23.71
2017-03-13T10:22:40.446Z,23.71
2017-03-13T10:23:40.352Z,23.71
2017-03-13T10:24:40.283Z,23.78
2017-03-13T10:25:39.838Z,23.8
2017-03-13T10:26:40.187Z,23.78
2017-03-13T10:27:39.705Z,23.84
2017-03-13T10:28:40.051Z,23.83
2017-03-13T10:29:39.981Z,23.81
2017-03-13T10:30:39.943Z,23.83
2017-03-13T10:31:39.868Z,23.76
2017-03-13T10:32:40.092Z,23.84
2017-03-13T10:33:40.232Z,23.86
2017-03-13T10:34:39.974Z,23.81
2017-03-13T10:35:39.782Z,23.81
2017-03-13T10:36:39.574Z,23.86
2017-03-13T10:37:39.500Z,23.88
2017-03-13T10:38:39.423Z,23.78
2017-03-13T10:39:39.515Z,23.92
2017-03-13T10:40:39.327Z,23.91
2017-03-13T10:41:38.862Z,23.87
2017-03-13T10:42:39.191Z,23.81
2017-03-13T10:43:39.128Z,23.81
2017-03-13T10:44:39.068Z,23.88
2017-03-13T10:45:39.030Z,23.93
2017-03-13T10:46:39.238Z,23.81
2017-03-13T10:47:39.182Z,23.88
2017-03-13T10:48:38.825Z,23.87
2017-03-13T10:49:38.909Z,23.88
2017-03-13T10:50:39.005Z,23.77
2017-03-13T10:51:38.239Z,23.83
2017-03-13T10:52:38.686Z,23.87
2017-03-13T10:53:38.530Z,23.78
2017-03-13T10:54:38.707Z,23.8
2017-03-13T10:55:38.389Z,23.87
2017-03-13T10:56:38.320Z,23.77
2017-03-13T10:57:38.274Z,23.8
2017-03-13T10:58:37.817Z,23.81
2017-03-13T10:59:38.133Z,23.78
2017-03-13T11:00:38.711Z,23.81
2017-03-13T11:01:38.013Z,23.83
2017-03-13T11:02:37.967Z,23.78
2017-03-13T11:03:37.887Z,23.81
2017-03-13T11:04:37.845Z,23.83
2017-03-13T11:05:37.793Z,23.81
2017-03-13T11:06:37.307Z,23.78
2017-03-13T11:07:37.653Z,23.81
2017-03-13T11:08:37.206Z,23.86
2017-03-13T11:09:37.540Z,23.73
2017-03-13T11:10:37.473Z,23.83
2017-03-13T11:11:37.429Z,23.8
2017-03-13T11:12:36.964Z,23.81
2017-03-13T11:13:37.631Z,23.76
2017-03-13T11:14:37.225Z,23.78
2017-03-13T11:15:37.159Z,23.76
2017-03-13T11:16:37.103Z,23.71
2017-03-13T11:17:37.048Z,23.69
2017-03-13T11:18:36.984Z,23.71
2017-03-13T11:19:36.919Z,23.73
2017-03-13T11:20:36.478Z,23.73
2017-03-13T11:21:36.807Z,23.73
2017-03-13T11:22:36.340Z,23.77
2017-03-13T11:23:36.297Z,23.71
2017-03-13T11:24:36.603Z,23.71
2017-03-13T11:25:36.590Z,23.73
2017-03-13T11:26:36.489Z,23.73
2017-03-13T11:27:36.418Z,23.71
2017-03-13T11:28:36.357Z,23.74
2017-03-13T11:29:36.308Z,23.71
2017-03-13T11:30:36.276Z,23.69
2017-03-13T11:31:36.188Z,23.76
2017-03-13T11:32:36.111Z,23.76
2017-03-13T11:33:36.349Z,23.71
2017-03-13T11:34:35.995Z,23.73
2017-03-13T11:35:35.938Z,23.65
2017-03-13T11:36:35.481Z,23.65
2017-03-13T11:37:35.838Z,23.71
2017-03-13T11:38:36.058Z,23.74
2017-03-13T11:39:35.692Z,23.69
2017-03-13T11:40:35.915Z,23.68
2017-03-13T11:41:35.863Z,23.69
2017-03-13T11:42:35.550Z,23.65
2017-03-13T11:43:35.440Z,23.65
2017-03-13T11:44:35.383Z,23.69
2017-03-13T11:45:35.314Z,23.68
2017-03-13T11:46:35.298Z,23.68
2017-03-13T11:47:35.197Z,23.73
2017-03-13T11:48:35.435Z,23.66
2017-03-13T11:49:35.025Z,23.71
2017-03-13T11:50:35.006Z,23.69
2017-03-13T11:51:34.952Z,23.62
2017-03-13T11:52:34.495Z,23.66
2017-03-13T11:53:34.435Z,23.62
2017-03-13T11:54:35.068Z,23.68
2017-03-13T11:55:34.610Z,23.61
2017-03-13T11:56:34.241Z,23.61
2017-03-13T11:57:34.576Z,23.61
2017-03-13T11:58:34.515Z,23.56
2017-03-13T11:59:34.294Z,23.61
2017-03-13T12:00:34.274Z,23.65
2017-03-13T12:01:34.336Z,23.62
2017-03-13T12:02:33.885Z,23.62
2017-03-13T12:03:34.503Z,23.63
2017-03-13T12:04:34.166Z,23.61
2017-03-13T12:05:34.367Z,23.63
2017-03-13T12:06:34.027Z,23.63
2017-03-13T12:07:33.955Z,23.61
2017-03-13T12:08:33.899Z,23.65
2017-03-13T12:09:34.152Z,23.62
2017-03-13T12:10:33.237Z,23.62
2017-03-13T12:11:33.714Z,23.61
2017-03-13T12:12:33.657Z,23.58
2017-03-13T12:13:33.592Z,23.62
2017-03-13T12:14:33.537Z,23.61
2017-03-13T12:15:33.479Z,23.61
2017-03-13T12:16:33.411Z,23.61
2017-03-13T12:17:33.666Z,23.55
2017-03-13T12:18:33.290Z,23.59
2017-03-13T12:19:33.244Z,23.56
2017-03-13T12:20:33.511Z,23.59
2017-03-13T12:21:33.112Z,23.59
2017-03-13T12:22:32.645Z,23.55
2017-03-13T12:23:32.993Z,23.59
2017-03-13T12:24:32.915Z,23.5
2017-03-13T12:25:33.160Z,23.55
2017-03-13T12:26:32.808Z,23.61
2017-03-13T12:27:32.725Z,23.59
2017-03-13T12:28:32.285Z,23.5
2017-03-13T12:29:32.215Z,23.56
2017-03-13T12:30:32.541Z,23.56
2017-03-13T12:31:32.100Z,23.48
2017-03-13T12:32:31.645Z,23.5
2017-03-13T12:33:32.268Z,23.56
2017-03-13T12:34:32.294Z,23.48
2017-03-13T12:35:31.887Z,23.54
2017-03-13T12:36:31.782Z,23.47
2017-03-13T12:37:32.010Z,23.55
2017-03-13T12:38:32.062Z,23.59
2017-03-13T12:39:31.984Z,23.55
2017-03-13T12:40:31.665Z,23.59
2017-03-13T12:41:31.876Z,23.55
2017-03-13T12:42:31.476Z,23.55
2017-03-13T12:43:31.749Z,23.54
2017-03-13T12:44:31.993Z,23.54
2017-03-13T12:45:31.336Z,23.46
2017-03-13T12:46:30.780Z,23.56
2017-03-13T12:47:31.503Z,23.5
2017-03-13T12:48:31.441Z,23.54
2017-03-13T12:49:31.374Z,23.51
2017-03-13T12:50:31.325Z,23.5
2017-03-13T12:51:30.866Z,23.51
2017-03-13T12:54:12.832Z,23.51
2017-03-13T12:54:23.184Z,23.54
2017-03-13T12:55:23.123Z,23.58
2017-03-13T12:56:23.339Z,23.48
2017-03-13T12:57:22.996Z,23.48